Portada
METAR-TAF:

METAR-TAF

Aeroports :

Río Hato, Panamà

latitud: 08-22-33N, longitud: 080-07-40W, altitud: 32 m

Observació

L'informe es va fer fa 48 minuts, a les 18:00 UTC
Vent 13 kt del Nord
Temperatura 31°C
Humitat 59%
Pressió 1010 hPa
Visibilitat 10 km o més
Núvols disperses a una alçada de 3000 ft

METAR: MPSM 241800Z 35013KT 9999 SCT030 31/22 Q1010

Hora: 13:48 (18:48 UTC)

Pronòstic

L'informe es va fer fa 1 hora i 48 minuts, a les 17:00 UTC
Pronòstic vàlid del 24 a les 18 UTC al 25 a les 24 UTC
Vent 7 kt del Nord/Nord-Oest
Visibilitat 10 km o més
Escasses núvols a una alçada de 1800 ft
Temporalment
l' 24 a les 18 UTC al 24 a les 22 UTC
Vent 15 kt del Nord/Nord-Oest

TAF: MPSM 241700Z 2418/2524 34007KT 9999 FEW018 TEMPO 2418/2422 34015KT

Observacions i pronòstics meteorològics de més de 4000 aeroports (METAR i TAF).

Les estacions disponibles són els punts grocs i vermells al mapa.

Posi el ratolí al punt desitjat per veure el nom de l'estació.

Feu clic per veure les observacions i els pronòstics meteorològics.

Per canviar el mapa: feu clic els botons verds amb una creu de color negre per apropar; al botó verd amb un guió per allunyar la imatge; o en les fletxes verdes per a mapes adjacents.


METAR-TAF: